Jaipur, India

1:38 PM IST on August 04, 2015 (GMT +0530)
Jaipur | | Change Station
CLOSE
Current Station
Airport
Location: Jaipur,
Elevation: 1280 ft
Nearby Weather Stations

Elev 1280 ft 26.82 °N, 75.81 °E | Updated 38 minutes ago

Haze
Haze
88 °F
Feels Like 102 °F
N
6
Wind Variable Wind from NW

Today
High -- | Low -- °F
--% Chance of Precip.
Yesterday
High -- | Low -- °F
Precip. -- in
5:52 AM 7:12 PM
Waning Gibbous, 80% visible
Pressure 29.65 in
Visibility 1.9 miles
Clouds Scattered Clouds 2500 ft
Scattered Clouds 9000 ft
Heat Index 102 °F
Dew Point 79 °F
Humidity 75%
Rainfall 0.00 in
Snow Depth Not available.
UV 14 out of 12
Pollen Not available.
Air Quality Not available.
Flu Activity Not available.
METAR VIJP 040730Z 32005KT 3000 HZ SCT025 SCT090 31/26 Q1004 NOSIG

More Conditions Fewer Conditions

Pressure 29.65 in
Visibility 1.9 miles
Clouds Scattered Clouds 2500 ft
Scattered Clouds 9000 ft
Heat Index 102 °F
Dew Point 79 °F
Humidity 75%
Rainfall 0.00 in
Snow Depth Not available.
UV 14 out of 12
Pollen Not available.
Air Quality Not available.
Flu Activity Not available.
METAR VIJP 040730Z 32005KT 3000 HZ SCT025 SCT090 31/26 Q1004 NOSIG

More Conditions Fewer Conditions

10-Day Weather Forecast

×

Almanac

Astronomy

Aug. 04, 2015 Rise Set
Actual Time
Civil Twilight
Nautical Twilight
Astronomical Twilight
Moon
Length of Visible Light
Length of Day
Tomorrow will be .
, % of the Moon is Illuminated

Today's Extremes

Country Highs Country Lows

Community

WunderPhotos

Upload Photos

1,843,877 photos uploaded!

WunderBlogs® & News

Nearby

Air Quality

  Air Quality AQ Index Pollutant
Not available.

Snow Depth

Station Depth Elevation

Earthquake Activity

City Distance Mag. Time & Date
Minimum magnitude displayed is 2.5.

Coastal Water Temperatures

Place Temperature

Stations

Nearby Weather Stations

Station Location Temp. Windchill Dew Point Humidity Wind Precip. Elev Updated Type